Check out our new BloomSky Weather System.

Active alerts


No alerts


Thunder radar  blitzortung!


Rain radar more information rain snow radar


Visit our other weather sites:

Template documentation
and downloads

And another site



Weather Underground History page Text

Daily Summary for April 17, 2017 Units:  Metric    English   Both
« Previous Day
Next Day »
Daily Weekly Monthly Yearly Custom
  High: Low: Average:
Temperature: 28.8 °C 19.3 °C 22.8 °C
Dew Point: 23 °C 18.4 °C 20.3 °C
Humidity: 99 % 61 % 87 %
Wind Speed: 17.7 km/h 0 km/h 2.9 km/h
Wind Gust: 27.4 km/h - -
Wind:- - SSE
Pressure: 1017.5 hPa 1013.1 hPa -
Precipitation: 12.7 mm    
Historical Graphs
 
 
Tabular Data for April 17, 2017
Time Temperature Dew Point Pressure Wind Wind Speed Wind Gust Humidity Rainfall Rate (Hourly)
00:01 21.7 °C 20.3 °C 1016.1 hPa Calm   3.2 km/h 92 % 0 mm
00:06 21.7 °C 20.3 °C 1016.1 hPa SE 1.6 km/h 3.2 km/h 92 % 0 mm
00:11 21.7 °C 20.3 °C 1016.1 hPa Calm   3.2 km/h 92 % 0 mm
00:16 21.7 °C 20.5 °C 1016.5 hPa Calm   3.2 km/h 93 % 0 mm
00:21 21.6 °C 20.4 °C 1016.5 hPa Calm   3.2 km/h 93 % 0 mm
00:26 21.6 °C 20.4 °C 1016.5 hPa Calm   3.2 km/h 93 % 0 mm
00:28 21.5 °C 20.3 °C 1016.5 hPa Calm   3.2 km/h 93 % 0 mm
00:33 21.6 °C 20.4 °C 1016.5 hPa SE 3.2 km/h 3.2 km/h 93 % 0 mm
00:38 21.6 °C 20.6 °C 1016.8 hPa SSW 1.6 km/h 3.2 km/h 94 % 0 mm
00:43 21.5 °C 20.5 °C 1016.8 hPa SSW 3.2 km/h 4.8 km/h 94 % 0 mm
00:48 21.5 °C 20.5 °C 1016.8 hPa SSW 3.2 km/h 4.8 km/h 94 % 0 mm
00:53 21.4 °C 20.4 °C 1016.8 hPa SSE 1.6 km/h 4.8 km/h 94 % 0 mm
00:58 21.4 °C 20.6 °C 1016.8 hPa Calm   4.8 km/h 95 % 0 mm
01:03 21.4 °C 20.6 °C 1016.8 hPa Calm   6.4 km/h 95 % 0 mm
01:08 21.4 °C 20.6 °C 1016.5 hPa SSE 1.6 km/h 6.4 km/h 95 % 0 mm
01:13 21.4 °C 20.6 °C 1016.5 hPa SE 3.2 km/h 6.4 km/h 95 % 0 mm
01:18 21.4 °C 20.6 °C 1016.5 hPa SSW 4.8 km/h 4.8 km/h 95 % 0 mm
01:23 21.5 °C 20.7 °C 1016.5 hPa SE 1.6 km/h 4.8 km/h 95 % 0 mm
01:28 21.6 °C 20.8 °C 1016.5 hPa South 3.2 km/h 4.8 km/h 95 % 0 mm
01:33 21.6 °C 20.8 °C 1016.5 hPa SSW 1.6 km/h 6.4 km/h 95 % 0 mm
01:38 21.6 °C 20.8 °C 1016.5 hPa SSW 3.2 km/h 6.4 km/h 95 % 0 mm
01:43 21.7 °C 20.9 °C 1016.5 hPa SSE 1.6 km/h 6.4 km/h 95 % 0 mm
01:48 21.7 °C 21 °C 1016.5 hPa Calm   6.4 km/h 96 % 0 mm
01:53 21.7 °C 20.9 °C 1016.5 hPa SW 4.8 km/h 6.4 km/h 95 % 0 mm
01:58 21.7 °C 20.9 °C 1016.5 hPa Calm   4.8 km/h 95 % 0 mm
01:59 21.7 °C 20.9 °C 1016.5 hPa SSW 1.6 km/h 4.8 km/h 95 % 0 mm
02:05 21.8 °C 21.1 °C 1016.5 hPa SSE 1.6 km/h 4.8 km/h 96 % 0 mm
02:10 21.8 °C 21.1 °C 1016.5 hPa Calm   4.8 km/h 96 % 0 mm
02:15 21.9 °C 21.2 °C 1016.5 hPa ESE 1.6 km/h 4.8 km/h 96 % 0 mm
02:20 21.9 °C 21.2 °C 1016.1 hPa SSE 1.6 km/h 3.2 km/h 96 % 0 mm
02:25 21.9 °C 21.1 °C 1016.1 hPa SSE 3.2 km/h 6.4 km/h 95 % 0 mm
02:30 22 °C 21.2 °C 1016.1 hPa South 1.6 km/h 6.4 km/h 95 % 0 mm
02:35 22 °C 21.2 °C 1016.1 hPa SSE 3.2 km/h 6.4 km/h 95 % 0 mm
02:40 21.9 °C 21.1 °C 1016.1 hPa SSE 1.6 km/h 4.8 km/h 95 % 0 mm
02:45 21.9 °C 21.1 °C 1016.1 hPa Calm   4.8 km/h 95 % 0 mm
02:50 21.9 °C 21.1 °C 1016.1 hPa Calm   3.2 km/h 95 % 0 mm
02:55 21.8 °C 21 °C 1016.1 hPa Calm   1.6 km/h 95 % 0 mm
03:00 21.8 °C 21 °C 1016.5 hPa Calm   1.6 km/h 95 % 0 mm
03:05 21.7 °C 20.9 °C 1016.5 hPa Calm   1.6 km/h 95 % 0 mm
03:11 21.7 °C 21 °C 1016.1 hPa SSW 1.6 km/h 3.2 km/h 96 % 0 mm
03:16 21.6 °C 20.9 °C 1016.1 hPa SSW 1.6 km/h 3.2 km/h 96 % 0 mm
03:21 21.6 °C 20.9 °C 1016.1 hPa SSW 1.6 km/h 3.2 km/h 96 % 0 mm
03:26 21.6 °C 20.9 °C 1016.1 hPa SSW 1.6 km/h 3.2 km/h 96 % 0 mm
03:31 21.5 °C 20.8 °C 1016.1 hPa SE 1.6 km/h 3.2 km/h 96 % 0 mm
03:36 21.4 °C 20.7 °C 1016.1 hPa Calm   3.2 km/h 96 % 0 mm
03:41 21.3 °C 20.6 °C 1016.1 hPa Calm   3.2 km/h 96 % 0 mm
03:46 21.3 °C 20.6 °C 1015.8 hPa Calm   1.6 km/h 96 % 0 mm
03:51 21.2 °C 20.5 °C 1016.1 hPa Calm     96 % 0 mm
03:56 21 °C 20.3 °C 1016.1 hPa Calm     96 % 0 mm
04:01 20.9 °C 20.2 °C 1016.1 hPa Calm     96 % 0 mm
04:06 20.8 °C 20.1 °C 1015.8 hPa Calm   1.6 km/h 96 % 0 mm
04:10 20.7 °C 20 °C 1015.8 hPa Calm   1.6 km/h 96 % 0 mm
04:15 20.7 °C 20 °C 1015.8 hPa Calm   1.6 km/h 96 % 0 mm
04:21 20.7 °C 20 °C 1015.8 hPa Calm   1.6 km/h 96 % 0 mm
04:25 20.6 °C 20.1 °C 1015.5 hPa Calm   1.6 km/h 97 % 0 mm
04:30 20.6 °C 20.1 °C 1015.8 hPa Calm   1.6 km/h 97 % 0 mm
04:36 20.6 °C 20.1 °C 1015.8 hPa Calm   1.6 km/h 97 % 0 mm
04:41 20.5 °C 20 °C 1015.8 hPa Calm   1.6 km/h 97 % 0 mm
04:46 20.5 °C 20 °C 1015.8 hPa Calm   1.6 km/h 97 % 0 mm
04:56 20.4 °C 19.9 °C 1016.1 hPa Calm   1.6 km/h 97 % 0 mm
05:01 20.3 °C 19.8 °C 1015.8 hPa Calm   1.6 km/h 97 % 0 mm
05:06 20.3 °C 19.8 °C 1015.8 hPa Calm   1.6 km/h 97 % 0 mm
05:07 20.3 °C 19.8 °C 1015.8 hPa Calm   1.6 km/h 97 % 0 mm
05:12 20.3 °C 19.8 °C 1015.8 hPa Calm     97 % 0 mm
05:17 20.3 °C 19.8 °C 1015.8 hPa Calm     97 % 0 mm
05:22 20.3 °C 20 °C 1015.8 hPa Calm   1.6 km/h 98 % 0 mm
05:27 20.3 °C 19.8 °C 1015.8 hPa Calm   1.6 km/h 97 % 0 mm
05:32 20.3 °C 20 °C 1015.8 hPa Calm   1.6 km/h 98 % 0 mm
05:37 20.2 °C 19.7 °C 1015.8 hPa Calm   1.6 km/h 97 % 0 mm
05:42 20.3 °C 20 °C 1015.8 hPa Calm   1.6 km/h 98 % 0 mm
05:47 20.3 °C 20 °C 1015.8 hPa Calm   1.6 km/h 98 % 0 mm
05:52 20.2 °C 19.9 °C 1015.8 hPa Calm   1.6 km/h 98 % 0 mm
05:57 20.2 °C 19.9 °C 1015.5 hPa Calm     98 % 0 mm
06:02 20.2 °C 19.9 °C 1015.5 hPa Calm   1.6 km/h 98 % 0 mm
06:07 20.2 °C 19.9 °C 1015.5 hPa Calm   1.6 km/h 98 % 0 mm
06:12 20.2 °C 19.9 °C 1015.8 hPa Calm   1.6 km/h 98 % 0 mm
06:17 20.2 °C 19.9 °C 1015.8 hPa Calm   1.6 km/h 98 % 0 mm
06:22 20.2 °C 19.9 °C 1015.8 hPa Calm   1.6 km/h 98 % 0 mm
06:27 20.2 °C 19.9 °C 1015.8 hPa Calm   1.6 km/h 98 % 0 mm
06:32 20.2 °C 19.9 °C 1015.8 hPa Calm   1.6 km/h 98 % 0 mm
06:42 20.2 °C 19.9 °C 1016.1 hPa Calm     98 % 0 mm
06:47 20.3 °C 20 °C 1016.1 hPa Calm     98 % 0 mm
06:52 20.3 °C 20 °C 1016.1 hPa Calm     98 % 0 mm
06:57 20.3 °C 20 °C 1016.1 hPa Calm     98 % 0 mm
07:02 20.3 °C 20 °C 1016.1 hPa SSE 1.6 km/h   98 % 0 mm
07:07 20.3 °C 20 °C 1016.1 hPa Calm   1.6 km/h 98 % 0 mm
07:12 20.3 °C 20 °C 1016.1 hPa Calm   1.6 km/h 98 % 0 mm
07:13 20.3 °C 20 °C 1016.1 hPa Calm   1.6 km/h 98 % 0 mm
07:18 20.4 °C 20.1 °C 1016.1 hPa Calm   1.6 km/h 98 % 0 mm
07:23 20.4 °C 20.1 °C 1016.1 hPa Calm   1.6 km/h 98 % 0 mm
07:28 20.4 °C 20.1 °C 1016.1 hPa NNW 3.2 km/h 3.2 km/h 98 % 0 mm
07:33 20.5 °C 20.2 °C 1016.1 hPa Calm   6.4 km/h 98 % 0 mm
07:38 20.6 °C 20.3 °C 1016.1 hPa Calm   6.4 km/h 98 % 0 mm
07:43 20.6 °C 20.3 °C 1016.1 hPa Calm   6.4 km/h 98 % 0 mm
07:48 20.6 °C 20.3 °C 1016.1 hPa East 1.6 km/h 6.4 km/h 98 % 0 mm
07:53 20.7 °C 20.4 °C 1016.1 hPa Calm   8 km/h 98 % 0 mm
07:58 20.7 °C 20.4 °C 1016.1 hPa Calm   8 km/h 98 % 0 mm
07:59 20.7 °C 20.4 °C 1016.1 hPa Calm   8 km/h 98 % 0 mm
08:04 20.8 °C 20.5 °C 1016.5 hPa SE 1.6 km/h 8 km/h 98 % 0 mm
08:09 20.9 °C 20.7 °C 1016.5 hPa Calm   6.4 km/h 99 % 0 mm
08:14 20.9 °C 20.7 °C 1016.8 hPa NNE 1.6 km/h 6.4 km/h 99 % 0 mm
08:19 21 °C 20.8 °C 1016.8 hPa Calm   6.4 km/h 99 % 0 mm
08:24 21.2 °C 21 °C 1016.8 hPa Calm   4.8 km/h 99 % 0 mm
08:29 21.4 °C 21.2 °C 1016.8 hPa East 1.6 km/h 3.2 km/h 99 % 0 mm
08:34 21.5 °C 21.3 °C 1016.8 hPa Calm   3.2 km/h 99 % 0 mm
08:39 21.7 °C 21.5 °C 1016.8 hPa East 1.6 km/h 3.2 km/h 99 % 0 mm
08:44 21.7 °C 21.4 °C 1016.8 hPa Calm   6.4 km/h 98 % 0 mm
08:49 21.7 °C 21.4 °C 1016.8 hPa Calm   6.4 km/h 98 % 0 mm
08:54 21.7 °C 21.4 °C 1016.8 hPa ENE 4.8 km/h 6.4 km/h 98 % 0 mm
08:59 21.8 °C 21.5 °C 1016.8 hPa Calm   6.4 km/h 98 % 0 mm
09:04 21.8 °C 21.5 °C 1017.2 hPa East 3.2 km/h 6.4 km/h 98 % 0 mm
09:09 22.1 °C 21.8 °C 1017.2 hPa East 1.6 km/h 6.4 km/h 98 % 0 mm
09:14 22.2 °C 21.9 °C 1017.2 hPa Calm   6.4 km/h 98 % 0 mm
09:19 22.4 °C 22.1 °C 1017.2 hPa ESE 3.2 km/h 4.8 km/h 98 % 0 mm
09:24 22.6 °C 22.1 °C 1017.2 hPa Calm   4.8 km/h 97 % 0 mm
09:29 22.8 °C 22.3 °C 1017.2 hPa ESE 1.6 km/h 6.4 km/h 97 % 0 mm
09:34 23.3 °C 22.8 °C 1017.2 hPa East 1.6 km/h 6.4 km/h 97 % 0 mm
09:39 23.6 °C 22.9 °C 1017.2 hPa SE 1.6 km/h 6.4 km/h 96 % 0 mm
09:40 23.6 °C 22.9 °C 1017.2 hPa SSE 1.6 km/h 6.4 km/h 96 % 0 mm
09:44 23.8 °C 22.8 °C 1017.2 hPa Calm   6.4 km/h 94 % 0 mm
09:49 24.2 °C 23 °C 1017.2 hPa SSW 6.4 km/h 6.4 km/h 93 % 0 mm
09:54 24.5 °C 22.9 °C 1017.2 hPa SW 9.7 km/h 9.7 km/h 91 % 0 mm
09:59 24.7 °C 22.4 °C 1017.2 hPa East 8 km/h 12.9 km/h 87 % 0 mm
10:05 24.7 °C 22.2 °C 1017.2 hPa South 8 km/h 12.9 km/h 86 % 0 mm
10:09 24.8 °C 21.9 °C 1017.2 hPa SE 1.6 km/h 12.9 km/h 84 % 0 mm
10:14 24.8 °C 21.9 °C 1017.2 hPa SSW 6.4 km/h 11.3 km/h 84 % 0 mm
10:19 24.9 °C 22 °C 1017.2 hPa SE 6.4 km/h 11.3 km/h 84 % 0 mm
10:24 25.2 °C 22.1 °C 1017.2 hPa SSE 6.4 km/h 11.3 km/h 83 % 0 mm
10:29 25.6 °C 22.3 °C 1017.2 hPa SSW 6.4 km/h 11.3 km/h 82 % 0 mm
10:34 25.8 °C 21.9 °C 1017.5 hPa SSE 6.4 km/h 11.3 km/h 79 % 0 mm
10:40 26 °C 22.3 °C 1017.2 hPa SW 1.6 km/h 11.3 km/h 80 % 0 mm
10:45 26.2 °C 21.6 °C 1017.2 hPa SE 6.4 km/h 11.3 km/h 76 % 0 mm
10:49 26.4 °C 21.6 °C 1017.2 hPa SE 4.8 km/h 12.9 km/h 75 % 0 mm
10:54 26.6 °C 22 °C 1017.2 hPa SE 3.2 km/h 12.9 km/h 76 % 0 mm
11:00 26.6 °C 21.6 °C 1017.2 hPa South 4.8 km/h 12.9 km/h 74 % 0 mm
11:05 26.9 °C 21.9 °C 1017.2 hPa SSW 9.7 km/h 12.9 km/h 74 % 0 mm
11:10 27.2 °C 21.9 °C 1017.2 hPa SSE 1.6 km/h 12.9 km/h 73 % 0 mm
11:15 27.6 °C 21.9 °C 1017.2 hPa East 8 km/h 11.3 km/h 71 % 0 mm
11:20 27.7 °C 21.3 °C 1017.2 hPa SE 6.4 km/h 12.9 km/h 68 % 0 mm
11:25 27.5 °C 21.1 °C 1017.2 hPa SE 6.4 km/h 14.5 km/h 68 % 0 mm
11:30 27.6 °C 20.9 °C 1017.2 hPa South 8 km/h 14.5 km/h 67 % 0 mm
11:35 27.4 °C 20.7 °C 1016.8 hPa East 4.8 km/h 14.5 km/h 67 % 0 mm
11:40 27.4 °C 21.2 °C 1016.8 hPa SE 6.4 km/h 14.5 km/h 69 % 0 mm
11:45 27.6 °C 21.2 °C 1016.8 hPa ESE 4.8 km/h 11.3 km/h 68 % 0 mm
11:50 27.8 °C 20.9 °C 1016.8 hPa SE 6.4 km/h 12.9 km/h 66 % 0 mm
11:55 28 °C 21.1 °C 1016.8 hPa ESE 3.2 km/h 12.9 km/h 66 % 0 mm
12:00 27.9 °C 20.7 °C 1016.8 hPa SW 4.8 km/h 12.9 km/h 65 % 0 mm
12:05 27.8 °C 20.6 °C 1016.5 hPa SE 9.7 km/h 16.1 km/h 65 % 0 mm
12:10 27.8 °C 20.9 °C 1016.5 hPa ESE 3.2 km/h 16.1 km/h 66 % 0 mm
12:15 27.8 °C 20.6 °C 1016.5 hPa SE 4.8 km/h 16.1 km/h 65 % 0 mm
12:20 28.1 °C 20.6 °C 1016.5 hPa SE 6.4 km/h 16.1 km/h 64 % 0 mm
12:25 28.1 °C 20.9 °C 1016.5 hPa SSE 4.8 km/h 14.5 km/h 65 % 0 mm
12:30 28.2 °C 20.7 °C 1016.5 hPa ENE 4.8 km/h 14.5 km/h 64 % 0 mm
12:35 28.3 °C 20.1 °C 1016.5 hPa East 9.7 km/h 14.5 km/h 61 % 0 mm
12:40 28.3 °C 20.6 °C 1016.1 hPa SE 8 km/h 16.1 km/h 63 % 0 mm
12:45 28.4 °C 20.4 °C 1016.1 hPa South 9.7 km/h 16.1 km/h 62 % 0 mm
12:50 28.4 °C 20.4 °C 1016.1 hPa ESE 9.7 km/h 16.1 km/h 62 % 0 mm
12:55 28.8 °C 21.3 °C 1015.8 hPa SSE 12.9 km/h 17.7 km/h 64 % 0 mm
13:00 28.8 °C 21.1 °C 1015.8 hPa SSE 11.3 km/h 17.7 km/h 63 % 0 mm
13:05 28.8 °C 20.8 °C 1015.5 hPa ESE 9.7 km/h 22.5 km/h 62 % 0 mm
13:10 28.7 °C 21.2 °C 1015.5 hPa South 4.8 km/h 22.5 km/h 64 % 0 mm
13:15 28.6 °C 20.6 °C 1015.5 hPa East 11.3 km/h 22.5 km/h 62 % 0 mm
13:20 28.3 °C 20.8 °C 1015.5 hPa East 9.7 km/h 19.3 km/h 64 % 0 mm
13:25 28.2 °C 21 °C 1015.5 hPa East 12.9 km/h 24.1 km/h 65 % 0 mm
13:30 27.8 °C 20.4 °C 1015.5 hPa SE 16.1 km/h 25.7 km/h 64 % 0 mm
13:35 27.6 °C 19.7 °C 1015.5 hPa SE 8 km/h 27.4 km/h 62 % 0 mm
13:40 27.4 °C 20.2 °C 1015.1 hPa SE 8 km/h 27.4 km/h 65 % 0 mm
13:41 27.4 °C 20.5 °C 1015.1 hPa ESE 9.7 km/h 27.4 km/h 66 % 0 mm
13:46 27.3 °C 20.9 °C 1015.1 hPa SE 8 km/h 27.4 km/h 68 % 0 mm
13:51 27.3 °C 20.9 °C 1014.8 hPa East 9.7 km/h 19.3 km/h 68 % 0 mm
13:56 27.4 °C 21.2 °C 1014.8 hPa ENE 6.4 km/h 19.3 km/h 69 % 0 mm
14:01 27.7 °C 21.5 °C 1014.8 hPa SE 1.6 km/h 19.3 km/h 69 % 0 mm
14:06 27.7 °C 21.7 °C 1014.8 hPa ESE 14.5 km/h 17.7 km/h 70 % 0 mm
14:11 27.8 °C 21.1 °C 1014.8 hPa SE 4.8 km/h 14.5 km/h 67 % 0 mm
14:16 27.8 °C 21.6 °C 1014.4 hPa ENE 3.2 km/h 14.5 km/h 69 % 0 mm
14:21 27.8 °C 21.6 °C 1014.4 hPa ENE 6.4 km/h 16.1 km/h 69 % 0 mm
14:26 27.9 °C 21.4 °C 1014.4 hPa ESE 6.4 km/h 16.1 km/h 68 % 0 mm
14:31 28.1 °C 21.6 °C 1014.4 hPa East 9.7 km/h 16.1 km/h 68 % 0 mm
14:36 28.1 °C 21.6 °C 1014.4 hPa NNE 4.8 km/h 12.9 km/h 68 % 0 mm
14:41 28 °C 21.8 °C 1014.1 hPa SW 1.6 km/h 16.1 km/h 69 % 0 mm
14:46 28.2 °C 21.5 °C 1014.1 hPa East 1.6 km/h 16.1 km/h 67 % 0 mm
14:51 28.3 °C 21.6 °C 1014.1 hPa SSE 6.4 km/h 16.1 km/h 67 % 0 mm
14:56 28.2 °C 21.5 °C 1014.1 hPa ESE 3.2 km/h 19.3 km/h 67 % 0 mm
15:01 28 °C 20.8 °C 1014.1 hPa ESE 17.7 km/h 19.3 km/h 65 % 0 mm
15:06 27.8 °C 21.1 °C 1013.8 hPa ESE 9.7 km/h 20.9 km/h 67 % 0 mm
15:11 27.8 °C 21.1 °C 1013.8 hPa ESE 11.3 km/h 20.9 km/h 67 % 0 mm
15:16 27.8 °C 21.1 °C 1013.8 hPa SSE 8 km/h 20.9 km/h 67 % 0 mm
15:21 27.9 °C 21.4 °C 1013.8 hPa SE 8 km/h 17.7 km/h 68 % 0 mm
15:26 27.9 °C 21 °C 1013.8 hPa ESE 6.4 km/h 17.7 km/h 66 % 0 mm
15:31 27.7 °C 21 °C 1013.4 hPa ENE 3.2 km/h 16.1 km/h 67 % 0 mm
15:36 27.8 °C 20.9 °C 1013.4 hPa East 4.8 km/h 16.1 km/h 66 % 0 mm
15:41 27.8 °C 20.9 °C 1013.4 hPa SE 6.4 km/h 14.5 km/h 66 % 0 mm
15:46 27.7 °C 20.8 °C 1013.1 hPa SE 8 km/h 14.5 km/h 66 % 0 mm
15:51 27.7 °C 21 °C 1013.1 hPa ESE 9.7 km/h 16.1 km/h 67 % 0 mm
15:56 27.7 °C 21 °C 1013.4 hPa ESE 8 km/h 17.7 km/h 67 % 0 mm
16:01 27.6 °C 20.9 °C 1013.1 hPa East 3.2 km/h 17.7 km/h 67 % 0 mm
16:06 27.7 °C 20.8 °C 1013.1 hPa SE 4.8 km/h 17.7 km/h 66 % 0 mm
16:11 27.7 °C 20.8 °C 1013.1 hPa East 6.4 km/h 16.1 km/h 66 % 0 mm
16:16 27.8 °C 20.4 °C 1013.1 hPa SSE 4.8 km/h 12.9 km/h 64 % 0 mm
16:21 27.9 °C 20.5 °C 1013.4 hPa SE 4.8 km/h 11.3 km/h 64 % 0 mm
16:26 27.8 °C 20.4 °C 1013.4 hPa East 12.9 km/h 16.1 km/h 64 % 0 mm
16:31 27.6 °C 20.7 °C 1013.4 hPa SSE 6.4 km/h 16.1 km/h 66 % 0 mm
16:36 27.7 °C 20.8 °C 1013.4 hPa ESE 12.9 km/h 16.1 km/h 66 % 0 mm
16:41 27.6 °C 20.7 °C 1013.4 hPa ESE 8 km/h 17.7 km/h 66 % 0 mm
16:46 27.5 °C 20.6 °C 1013.4 hPa SE 4.8 km/h 19.3 km/h 66 % 0 mm
16:51 27.4 °C 20.5 °C 1013.4 hPa SSW 4.8 km/h 19.3 km/h 66 % 0 mm
16:56 27.6 °C 20.7 °C 1013.4 hPa SSW 12.9 km/h 19.3 km/h 66 % 0 mm
17:01 27.6 °C 19.7 °C 1013.1 hPa SE 12.9 km/h 14.5 km/h 62 % 0 mm
17:06 27.6 °C 19.7 °C 1013.4 hPa South 4.8 km/h 20.9 km/h 62 % 0 mm
17:11 27.2 °C 19.5 °C 1013.8 hPa WNW 4.8 km/h 20.9 km/h 63 % 0 mm
17:16 25.4 °C 18.8 °C 1013.8 hPa WSW 3.2 km/h 20.9 km/h 67 % 0 mm
17:26 23.6 °C 18.7 °C 1013.8 hPa SW 4.8 km/h 16.1 km/h 74 % 0 mm
17:31 23.1 °C 18.8 °C 1014.4 hPa Calm   16.1 km/h 77 % 0.51 mm
17:36 22.4 °C 19 °C 1014.4 hPa SSW 1.6 km/h 16.1 km/h 81 % 4.83 mm
17:41 21.7 °C 18.9 °C 1014.4 hPa WSW 1.6 km/h 12.9 km/h 84 % 8.13 mm
17:46 21 °C 18.8 °C 1014.1 hPa SSE 1.6 km/h 12.9 km/h 87 % 10.41 mm
17:51 20.6 °C 18.9 °C 1014.4 hPa West 3.2 km/h 12.9 km/h 90 % 11.18 mm
17:56 20.3 °C 18.8 °C 1014.4 hPa West 1.6 km/h 12.9 km/h 91 % 11.18 mm
18:01 20.2 °C 18.9 °C 1014.4 hPa WNW 3.2 km/h 9.7 km/h 92 % 11.18 mm
18:06 20.1 °C 18.8 °C 1014.8 hPa West 6.4 km/h 9.7 km/h 92 % 11.18 mm
18:11 19.9 °C 18.6 °C 1014.8 hPa Calm   9.7 km/h 92 % 11.18 mm
18:16 19.8 °C 18.6 °C 1014.8 hPa WNW 3.2 km/h 9.7 km/h 93 % 11.18 mm
18:21 19.7 °C 18.5 °C 1014.8 hPa Calm   9.7 km/h 93 % 11.18 mm
18:23 19.7 °C 18.5 °C 1015.1 hPa WNW 1.6 km/h 9.7 km/h 93 % 11.18 mm
18:28 19.6 °C 18.4 °C 1014.8 hPa West 1.6 km/h 9.7 km/h 93 % 11.18 mm
18:33 19.6 °C 18.4 °C 1014.8 hPa West 3.2 km/h 9.7 km/h 93 % 10.41 mm
18:38 19.6 °C 18.6 °C 1015.1 hPa SW 1.6 km/h 6.4 km/h 94 % 6.35 mm
18:43 19.6 °C 18.6 °C 1015.1 hPa West 3.2 km/h 6.4 km/h 94 % 3.05 mm
18:48 19.6 °C 18.6 °C 1015.1 hPa Calm   8 km/h 94 % 0.76 mm
18:53 19.6 °C 18.4 °C 1015.1 hPa NW 3.2 km/h 9.7 km/h 93 % 0 mm
18:58 19.6 °C 18.6 °C 1015.1 hPa WNW 3.2 km/h 9.7 km/h 94 % 0 mm
19:03 19.6 °C 18.6 °C 1015.1 hPa West 3.2 km/h 9.7 km/h 94 % 0 mm
19:08 19.6 °C 18.6 °C 1015.1 hPa NW 4.8 km/h 6.4 km/h 94 % 0 mm
19:13 19.6 °C 18.6 °C 1014.8 hPa Calm   8 km/h 94 % 0 mm
19:18 19.6 °C 18.6 °C 1014.8 hPa NNW 3.2 km/h 8 km/h 94 % 0 mm
19:28 19.6 °C 18.8 °C 1014.8 hPa NNW 1.6 km/h 4.8 km/h 95 % 0.51 mm
19:33 19.6 °C 18.8 °C 1014.4 hPa WNW 3.2 km/h 4.8 km/h 95 % 0.51 mm
19:38 19.6 °C 18.8 °C 1014.4 hPa Calm   4.8 km/h 95 % 0.76 mm
19:43 19.6 °C 18.8 °C 1014.8 hPa Calm   4.8 km/h 95 % 1.02 mm
19:48 19.6 °C 18.8 °C 1014.4 hPa NNW 1.6 km/h 4.8 km/h 95 % 1.02 mm
19:53 19.6 °C 18.9 °C 1014.4 hPa Calm   3.2 km/h 96 % 1.27 mm
19:58 19.7 °C 19 °C 1014.4 hPa Calm   3.2 km/h 96 % 1.27 mm
20:03 19.6 °C 18.9 °C 1014.4 hPa Calm   3.2 km/h 96 % 1.27 mm
20:08 19.6 °C 18.9 °C 1014.4 hPa North 1.6 km/h 3.2 km/h 96 % 1.27 mm
20:13 19.6 °C 18.9 °C 1014.4 hPa North 1.6 km/h 3.2 km/h 96 % 1.27 mm
20:18 19.6 °C 18.9 °C 1014.4 hPa Calm   6.4 km/h 96 % 1.27 mm
20:23 19.5 °C 18.8 °C 1014.4 hPa Calm   6.4 km/h 96 % 1.02 mm
20:24 19.5 °C 18.8 °C 1014.4 hPa Calm   6.4 km/h 96 % 1.02 mm
20:29 19.5 °C 18.8 °C 1014.4 hPa Calm   6.4 km/h 96 % 0.76 mm
20:34 19.4 °C 18.7 °C 1014.8 hPa Calm   3.2 km/h 96 % 0.76 mm
20:39 19.4 °C 18.7 °C 1014.4 hPa Calm   3.2 km/h 96 % 0.51 mm
20:44 19.4 °C 18.9 °C 1014.8 hPa Calm   3.2 km/h 97 % 0.25 mm
20:49 19.4 °C 18.9 °C 1014.8 hPa Calm   1.6 km/h 97 % 0.25 mm
20:54 19.4 °C 18.9 °C 1014.8 hPa Calm   1.6 km/h 97 % 0 mm
20:59 19.4 °C 18.9 °C 1014.8 hPa Calm   1.6 km/h 97 % 0 mm
21:04 19.4 °C 18.9 °C 1014.8 hPa Calm   1.6 km/h 97 % 0 mm
21:09 19.4 °C 18.9 °C 1015.1 hPa Calm   1.6 km/h 97 % 0 mm
21:14 19.3 °C 18.8 °C 1015.1 hPa Calm     97 % 0 mm
21:19 19.3 °C 18.8 °C 1015.1 hPa Calm     97 % 0 mm
21:24 19.3 °C 18.8 °C 1015.1 hPa Calm     97 % 0 mm
21:29 19.4 °C 18.9 °C 1015.5 hPa Calm     97 % 0 mm
21:34 19.5 °C 19 °C 1015.5 hPa Calm   1.6 km/h 97 % 0 mm
21:39 19.6 °C 19.1 °C 1015.5 hPa Calm   1.6 km/h 97 % 0 mm
21:44 19.6 °C 19.1 °C 1015.5 hPa Calm   1.6 km/h 97 % 0 mm
21:49 19.7 °C 19.2 °C 1015.8 hPa Calm   1.6 km/h 97 % 0 mm
21:54 19.7 °C 19.2 °C 1015.8 hPa Calm   3.2 km/h 97 % 0 mm
21:59 19.7 °C 19.2 °C 1015.8 hPa Calm   3.2 km/h 97 % 0 mm
22:04 19.7 °C 19.2 °C 1015.8 hPa Calm   3.2 km/h 97 % 0 mm
22:09 19.7 °C 19.2 °C 1015.8 hPa Calm   1.6 km/h 97 % 0 mm
22:14 19.8 °C 19.3 °C 1015.8 hPa Calm   1.6 km/h 97 % 0 mm
22:19 19.8 °C 19.3 °C 1015.8 hPa Calm   1.6 km/h 97 % 0 mm
22:24 19.8 °C 19.3 °C 1015.8 hPa Calm   1.6 km/h 97 % 0 mm
22:29 19.8 °C 19.3 °C 1015.8 hPa Calm   1.6 km/h 97 % 0 mm
22:34 19.9 °C 19.6 °C 1015.8 hPa Calm   1.6 km/h 98 % 0 mm
22:40 19.9 °C 19.6 °C 1015.8 hPa Calm   1.6 km/h 98 % 0 mm
22:45 19.9 °C 19.6 °C 1015.8 hPa Calm   1.6 km/h 98 % 0 mm
22:50 19.9 °C 19.6 °C 1015.8 hPa Calm   1.6 km/h 98 % 0 mm
22:55 19.9 °C 19.6 °C 1015.8 hPa NNE 3.2 km/h 3.2 km/h 98 % 0 mm
23:00 19.9 °C 19.6 °C 1015.8 hPa Calm   3.2 km/h 98 % 0 mm
23:05 19.9 °C 19.6 °C 1015.8 hPa Calm   3.2 km/h 98 % 0 mm
23:10 19.9 °C 19.6 °C 1015.8 hPa NNE 1.6 km/h 4.8 km/h 98 % 0 mm
23:15 19.8 °C 19.5 °C 1015.8 hPa Calm   4.8 km/h 98 % 0 mm
23:20 19.8 °C 19.5 °C 1015.8 hPa Calm   4.8 km/h 98 % 0 mm
23:25 19.8 °C 19.5 °C 1015.8 hPa Calm   3.2 km/h 98 % 0 mm
23:30 19.8 °C 19.5 °C 1015.8 hPa Calm   1.6 km/h 98 % 0 mm
23:35 19.8 °C 19.5 °C 1015.8 hPa North 1.6 km/h 6.4 km/h 98 % 0 mm
23:40 19.7 °C 19.4 °C 1015.5 hPa NNW 1.6 km/h 6.4 km/h 98 % 0.25 mm
23:45 19.7 °C 19.4 °C 1015.5 hPa Calm   6.4 km/h 98 % 0.25 mm
23:50 19.6 °C 19.3 °C 1015.5 hPa Calm   6.4 km/h 98 % 0.25 mm
23:55 19.5 °C 19.2 °C 1015.5 hPa ENE 3.2 km/h 6.4 km/h 98 % 0.25 mm
Spring, Texas: Villages of Bridgestone
Compliments of Weather Underground - 2.75 mb

Script developed by  Jim McMurry - jmcmurry@mwt.net Adapted for the template by  Wim van der Kuil - Leuven-Template.eu

You find our weather info also at:

UK Metoffice

WeatherCloud

Weather Underground

Mid-South Weather Network

AWEKAS

Citizen Weather Observer Program (CWOP)

HAMweather, WeatherForYou, PWS Weather

Equipment we use:

Weather-station
Davis Vantage Vue

Weather-program
Meteohub

Weather-server
Debian 7.9 x86 (Guest)

Provider
DreamHost

Davis Vantage Vue

Meteohub

Debian 7.9 x86 (Guest)

DreamHost